createdAt,value
2019-03-26T00:01:16.580Z,7.33
2019-03-26T00:03:44.993Z,7.80
2019-03-26T00:06:13.469Z,7.53
2019-03-26T00:08:42.000Z,7.50
2019-03-26T00:11:10.555Z,7.57
2019-03-26T00:13:38.975Z,7.83
2019-03-26T00:16:07.408Z,7.93
2019-03-26T00:18:35.896Z,9.20
2019-03-26T00:21:04.477Z,7.83
2019-03-26T00:23:32.910Z,10.77
2019-03-26T00:26:01.375Z,7.20
2019-03-26T00:28:29.840Z,7.93
2019-03-26T00:30:58.343Z,6.80
2019-03-26T00:33:36.360Z,7.90
2019-03-26T00:35:56.965Z,7.37
2019-03-26T00:38:25.454Z,7.67
2019-03-26T00:40:54.067Z,8.33
2019-03-26T00:43:22.602Z,7.57
2019-03-26T00:45:51.252Z,8.63
2019-03-26T00:48:20.075Z,7.93
2019-03-26T00:50:48.575Z,8.20
2019-03-26T00:53:17.102Z,8.20
2019-03-26T00:55:45.646Z,8.70
2019-03-26T00:58:14.128Z,8.43
2019-03-26T01:00:43.399Z,8.00
2019-03-26T01:03:11.957Z,6.60
2019-03-26T01:05:41.157Z,8.40
2019-03-26T01:08:09.728Z,8.50
2019-03-26T01:10:38.209Z,7.47
2019-03-26T01:13:06.658Z,9.30
2019-03-26T01:15:35.311Z,10.43
2019-03-26T01:18:03.981Z,9.20
2019-03-26T01:20:32.477Z,8.80
2019-03-26T01:23:00.934Z,8.97
2019-03-26T01:25:29.351Z,9.13
2019-03-26T01:27:57.864Z,11.70
2019-03-26T01:30:26.290Z,9.40
2019-03-26T01:32:54.784Z,10.30
2019-03-26T01:35:23.253Z,10.30
2019-03-26T01:37:51.801Z,10.33
2019-03-26T01:40:20.225Z,11.00
2019-03-26T01:42:48.698Z,10.47
2019-03-26T01:45:17.121Z,10.47
2019-03-26T01:47:45.571Z,11.47
2019-03-26T01:50:14.108Z,11.23
2019-03-26T01:52:42.571Z,11.67
2019-03-26T01:55:11.055Z,11.70
2019-03-26T01:57:39.496Z,11.57
2019-03-26T02:00:08.149Z,11.93
2019-03-26T02:02:36.606Z,11.20
2019-03-26T02:05:06.408Z,10.90
2019-03-26T02:07:34.832Z,13.80
2019-03-26T02:10:03.528Z,11.07
2019-03-26T02:12:31.948Z,11.57
2019-03-26T02:15:00.434Z,12.00
2019-03-26T02:17:28.909Z,10.40
2019-03-26T02:19:57.412Z,10.80
2019-03-26T02:22:25.835Z,11.17
2019-03-26T02:24:54.288Z,11.97
2019-03-26T02:27:22.734Z,13.20
2019-03-26T02:29:51.638Z,12.30
2019-03-26T02:32:20.073Z,13.67
2019-03-26T02:34:48.750Z,12.27
2019-03-26T02:37:17.230Z,13.10
2019-03-26T02:39:45.794Z,10.97
2019-03-26T02:42:14.220Z,12.67
2019-03-26T02:44:42.667Z,11.43
2019-03-26T02:47:11.109Z,12.73
2019-03-26T02:49:39.560Z,12.53
2019-03-26T02:52:07.972Z,12.20
2019-03-26T02:54:36.416Z,13.50
2019-03-26T02:57:04.833Z,11.37
2019-03-26T02:59:33.284Z,11.90
2019-03-26T03:02:01.731Z,12.23
2019-03-26T03:04:30.188Z,11.73
2019-03-26T03:06:58.656Z,12.27
2019-03-26T03:09:27.114Z,12.57
2019-03-26T03:11:55.588Z,12.93
2019-03-26T03:14:24.008Z,11.80
2019-03-26T03:16:52.517Z,11.73
2019-03-26T03:19:20.993Z,11.20
2019-03-26T03:21:49.434Z,11.40
2019-03-26T03:24:17.866Z,12.30
2019-03-26T03:26:46.610Z,11.73
2019-03-26T03:29:15.117Z,11.87
2019-03-26T03:31:43.603Z,11.20
2019-03-26T03:34:12.071Z,10.93
2019-03-26T03:36:40.572Z,11.20
2019-03-26T03:39:09.195Z,10.87
2019-03-26T03:41:38.061Z,11.90
2019-03-26T03:44:06.505Z,12.00
2019-03-26T03:46:35.231Z,11.77
2019-03-26T03:49:04.054Z,10.77
2019-03-26T03:51:35.161Z,9.67
2019-03-26T03:54:04.355Z,10.93
2019-03-26T03:56:34.921Z,11.47
2019-03-26T03:59:03.422Z,12.60
2019-03-26T04:01:31.859Z,12.37
2019-03-26T04:04:00.272Z,10.63
2019-03-26T04:06:28.838Z,15.27
2019-03-26T04:08:57.348Z,10.57
2019-03-26T04:11:25.858Z,12.20
2019-03-26T04:13:54.384Z,12.73
2019-03-26T04:16:22.802Z,12.50
2019-03-26T04:18:51.312Z,12.80
2019-03-26T04:21:19.755Z,11.23
2019-03-26T04:23:48.201Z,11.63
2019-03-26T04:26:16.682Z,11.17
2019-03-26T04:28:45.123Z,12.87
2019-03-26T04:31:13.663Z,12.07
2019-03-26T04:33:42.128Z,12.10
2019-03-26T04:36:24.599Z,13.03
2019-03-26T04:38:40.828Z,11.83
2019-03-26T04:41:09.260Z,11.87
2019-03-26T04:43:37.818Z,10.83
2019-03-26T04:46:06.236Z,13.20
2019-03-26T04:48:34.832Z,12.80
2019-03-26T04:51:03.265Z,10.73
2019-03-26T04:53:34.095Z,11.63
2019-03-26T04:56:01.851Z,11.63
2019-03-26T04:58:30.289Z,12.77
2019-03-26T05:00:58.805Z,12.10
2019-03-26T05:03:27.255Z,12.90
2019-03-26T05:05:55.777Z,13.67
2019-03-26T05:08:24.197Z,14.07
2019-03-26T05:10:52.666Z,13.40
2019-03-26T05:13:21.164Z,13.07
2019-03-26T05:15:49.616Z,14.20
2019-03-26T05:18:18.122Z,13.57
2019-03-26T05:20:46.565Z,12.40
2019-03-26T05:23:15.060Z,14.30
2019-03-26T05:25:43.501Z,13.10
2019-03-26T05:28:11.933Z,13.83
2019-03-26T05:30:40.370Z,12.30
2019-03-26T05:33:08.881Z,14.40
2019-03-26T05:35:37.308Z,14.97
2019-03-26T05:38:05.752Z,14.53
2019-03-26T05:40:34.205Z,15.97
2019-03-26T05:43:02.634Z,14.57
2019-03-26T05:45:32.724Z,18.23
2019-03-26T05:48:01.157Z,15.23
2019-03-26T05:50:29.561Z,18.87
2019-03-26T05:52:58.061Z,14.20
2019-03-26T05:55:26.517Z,14.23
2019-03-26T05:57:54.948Z,16.00
2019-03-26T06:00:24.785Z,13.73
2019-03-26T06:02:53.239Z,14.50
2019-03-26T06:05:21.677Z,16.03
2019-03-26T06:07:50.132Z,14.33
2019-03-26T06:10:18.598Z,14.63
2019-03-26T06:12:50.095Z,15.90
2019-03-26T06:15:17.196Z,15.90
2019-03-26T06:17:45.663Z,18.03
2019-03-26T06:20:14.201Z,14.60
2019-03-26T06:22:42.686Z,14.00
2019-03-26T06:25:11.445Z,16.07
2019-03-26T06:27:39.966Z,17.40
2019-03-26T06:30:09.768Z,16.83
2019-03-26T06:32:38.267Z,15.43
2019-03-26T06:35:09.997Z,14.43
2019-03-26T06:37:38.449Z,14.77
2019-03-26T06:40:09.379Z,17.00
2019-03-26T06:42:37.997Z,21.30
2019-03-26T06:45:08.424Z,13.20
2019-03-26T06:47:37.009Z,14.60
2019-03-26T06:50:08.745Z,15.13
2019-03-26T06:52:37.255Z,15.60
2019-03-26T06:55:07.308Z,16.40
2019-03-26T06:57:36.167Z,14.17
2019-03-26T07:00:10.979Z,13.70
2019-03-26T07:02:39.562Z,16.03
2019-03-26T07:05:08.553Z,16.30
2019-03-26T07:07:37.114Z,13.10
2019-03-26T07:10:09.278Z,16.80
2019-03-26T07:12:37.721Z,14.97
2019-03-26T07:15:10.128Z,15.40
2019-03-26T07:17:38.579Z,18.13
2019-03-26T07:20:08.439Z,15.80
2019-03-26T07:22:36.966Z,19.63
2019-03-26T07:25:08.532Z,16.73
2019-03-26T07:27:37.651Z,15.93
2019-03-26T07:30:10.755Z,18.97
2019-03-26T07:32:39.243Z,13.83
2019-03-26T07:35:08.414Z,14.87
2019-03-26T07:37:45.112Z,18.60
2019-03-26T07:40:08.198Z,21.30
2019-03-26T07:42:36.685Z,17.87
2019-03-26T07:45:08.293Z,15.63
2019-03-26T07:47:36.715Z,16.00
2019-03-26T07:50:07.090Z,18.17
2019-03-26T07:52:35.587Z,15.53
2019-03-26T07:55:06.092Z,17.23
2019-03-26T07:57:34.530Z,18.90
2019-03-26T08:00:04.581Z,19.17
2019-03-26T08:02:33.026Z,20.73
2019-03-26T08:05:01.436Z,15.27
2019-03-26T08:07:29.876Z,16.40
2019-03-26T08:09:58.338Z,17.90
2019-03-26T08:12:26.864Z,15.73
2019-03-26T08:14:55.297Z,14.90
2019-03-26T08:17:23.922Z,16.07
2019-03-26T08:19:52.412Z,15.40
2019-03-26T08:22:20.858Z,14.43
2019-03-26T08:24:49.285Z,13.97
2019-03-26T08:27:17.801Z,14.30
2019-03-26T08:29:46.235Z,13.33
2019-03-26T08:32:14.689Z,17.10
2019-03-26T08:34:43.144Z,16.07
2019-03-26T08:37:11.634Z,17.87
2019-03-26T08:39:40.098Z,17.23
2019-03-26T08:42:08.612Z,13.57
2019-03-26T08:44:37.084Z,15.50
2019-03-26T08:47:05.518Z,13.97
2019-03-26T08:49:33.975Z,16.60
2019-03-26T08:52:02.516Z,14.33
2019-03-26T08:54:31.073Z,13.93
2019-03-26T08:56:59.511Z,13.40
2019-03-26T08:59:28.002Z,12.73
2019-03-26T09:01:56.445Z,16.13
2019-03-26T09:04:26.953Z,11.83
2019-03-26T09:06:55.021Z,12.43
2019-03-26T09:09:23.470Z,12.63
2019-03-26T09:11:51.900Z,13.07
2019-03-26T09:14:20.384Z,10.73
2019-03-26T09:16:48.802Z,11.80
2019-03-26T09:19:17.243Z,11.67
2019-03-26T09:21:47.026Z,10.83
2019-03-26T09:24:15.557Z,10.60
2019-03-26T09:26:43.980Z,10.87
2019-03-26T09:29:12.432Z,10.77
2019-03-26T09:31:40.857Z,11.03
2019-03-26T09:34:10.067Z,12.10
2019-03-26T09:36:38.654Z,12.63
2019-03-26T09:39:08.136Z,11.17
2019-03-26T09:41:36.709Z,11.20
2019-03-26T09:44:05.221Z,9.20
2019-03-26T09:46:33.637Z,9.70
2019-03-26T09:49:02.085Z,10.13
2019-03-26T09:51:30.526Z,10.40
2019-03-26T09:53:59.104Z,11.10
2019-03-26T09:56:30.549Z,12.40
2019-03-26T09:58:57.687Z,10.77
2019-03-26T10:01:26.118Z,10.60
2019-03-26T10:03:54.567Z,10.13
2019-03-26T10:06:24.024Z,11.80
2019-03-26T10:08:53.060Z,10.43
2019-03-26T10:11:21.591Z,11.50
2019-03-26T10:13:50.025Z,11.37
2019-03-26T10:16:18.581Z,11.93
2019-03-26T10:18:47.106Z,11.10
2019-03-26T10:21:15.604Z,11.23
2019-03-26T10:23:44.017Z,11.60
2019-03-26T10:26:12.501Z,13.57
2019-03-26T10:28:40.970Z,12.00
2019-03-26T10:31:09.426Z,13.40
2019-03-26T10:33:37.848Z,13.00
2019-03-26T10:36:06.386Z,13.03
2019-03-26T10:38:34.805Z,14.70
2019-03-26T10:41:03.447Z,12.60
2019-03-26T10:43:31.952Z,14.30
2019-03-26T10:46:00.511Z,12.53
2019-03-26T10:48:31.826Z,12.47
2019-03-26T10:50:59.114Z,15.30
2019-03-26T10:53:27.541Z,10.97
2019-03-26T10:55:56.002Z,11.37
2019-03-26T10:58:24.532Z,12.53
2019-03-26T11:00:53.019Z,10.73
2019-03-26T11:03:21.574Z,10.13
2019-03-26T11:05:50.045Z,10.00
2019-03-26T11:08:18.580Z,8.30
2019-03-26T11:10:46.970Z,9.53
2019-03-26T11:13:15.434Z,9.17
2019-03-26T11:15:44.019Z,10.40
2019-03-26T11:18:12.448Z,10.90
2019-03-26T11:20:40.872Z,12.80
2019-03-26T11:23:09.379Z,8.37
2019-03-26T11:25:37.817Z,8.90
2019-03-26T11:28:06.263Z,9.43
2019-03-26T11:30:34.693Z,9.17
2019-03-26T11:33:03.211Z,8.80
2019-03-26T11:35:31.634Z,9.60
2019-03-26T11:38:00.100Z,8.60
2019-03-26T11:40:28.503Z,8.50
2019-03-26T11:42:56.938Z,7.27
2019-03-26T11:45:25.375Z,6.47
2019-03-26T11:47:53.783Z,7.60
2019-03-26T11:50:22.353Z,8.17
2019-03-26T11:52:50.779Z,7.73
2019-03-26T11:55:21.702Z,8.33
2019-03-26T11:57:49.401Z,7.77
2019-03-26T12:00:30.304Z,5.90
2019-03-26T12:02:58.761Z,6.17
2019-03-26T12:05:27.197Z,6.50
2019-03-26T12:07:55.628Z,6.77
2019-03-26T12:10:24.117Z,6.33
2019-03-26T12:12:52.644Z,5.50
2019-03-26T12:15:21.094Z,6.10
2019-03-26T12:17:49.513Z,5.57
2019-03-26T12:20:18.019Z,5.30
2019-03-26T12:22:46.520Z,5.37
2019-03-26T12:25:15.164Z,4.40
2019-03-26T12:27:43.597Z,4.77
2019-03-26T12:30:12.493Z,5.20
2019-03-26T12:32:41.411Z,6.37
2019-03-26T12:35:11.725Z,6.57
2019-03-26T12:37:40.140Z,5.60
2019-03-26T12:40:08.838Z,5.47
2019-03-26T12:42:37.258Z,5.67
2019-03-26T12:45:07.343Z,6.00
2019-03-26T12:47:35.985Z,6.70
2019-03-26T12:50:06.850Z,6.03
2019-03-26T12:52:35.289Z,5.40
2019-03-26T12:55:04.996Z,6.20
2019-03-26T12:57:33.466Z,5.50
2019-03-26T13:00:02.010Z,5.20
2019-03-26T13:02:30.492Z,8.07
2019-03-26T13:04:59.069Z,5.50
2019-03-26T13:07:27.529Z,5.40
2019-03-26T13:09:55.936Z,5.30
2019-03-26T13:12:24.357Z,5.10
2019-03-26T13:14:52.779Z,8.60
2019-03-26T13:17:21.778Z,5.43
2019-03-26T13:19:50.273Z,4.93
2019-03-26T13:22:18.709Z,5.70
2019-03-26T13:24:47.263Z,4.93
2019-03-26T13:27:15.733Z,5.87
2019-03-26T13:29:44.168Z,6.30
2019-03-26T13:32:13.164Z,5.73
2019-03-26T13:34:41.702Z,5.27
2019-03-26T13:37:10.220Z,5.20
2019-03-26T13:39:38.629Z,5.03
2019-03-26T13:42:07.052Z,4.53
2019-03-26T13:44:35.567Z,5.60
2019-03-26T13:47:04.076Z,5.63
2019-03-26T13:49:32.513Z,8.57
2019-03-26T13:52:00.912Z,5.33
2019-03-26T13:54:29.369Z,4.83
2019-03-26T13:56:57.820Z,4.00
2019-03-26T13:59:26.289Z,5.33
2019-03-26T14:01:54.788Z,6.30
2019-03-26T14:04:23.289Z,5.57
2019-03-26T14:06:52.722Z,6.20
2019-03-26T14:09:21.327Z,7.70
2019-03-26T14:11:49.750Z,5.80
2019-03-26T14:14:18.181Z,6.20
2019-03-26T14:16:46.604Z,6.17
2019-03-26T14:19:15.045Z,6.43
2019-03-26T14:21:43.457Z,7.00
2019-03-26T14:24:13.448Z,6.23
2019-03-26T14:26:42.172Z,6.50
2019-03-26T14:29:10.601Z,10.03
2019-03-26T14:31:39.183Z,9.30
2019-03-26T14:34:07.618Z,7.00
2019-03-26T14:36:36.058Z,8.70
2019-03-26T14:39:07.561Z,7.43
2019-03-26T14:41:35.997Z,8.40
2019-03-26T14:44:04.555Z,8.20
2019-03-26T14:46:33.012Z,7.47
2019-03-26T14:49:01.444Z,7.63
2019-03-26T14:51:29.905Z,9.53
2019-03-26T14:53:58.389Z,7.43
2019-03-26T14:56:26.862Z,8.17
2019-03-26T14:58:55.265Z,7.63
2019-03-26T15:01:23.697Z,9.37
2019-03-26T15:03:52.193Z,7.53
2019-03-26T15:06:20.637Z,7.13
2019-03-26T15:08:49.094Z,7.53
2019-03-26T15:11:17.546Z,5.90
2019-03-26T15:13:49.239Z,6.03
2019-03-26T15:16:16.288Z,6.23
2019-03-26T15:18:44.779Z,5.60
2019-03-26T15:21:13.228Z,5.90
2019-03-26T15:23:41.659Z,7.07
2019-03-26T15:26:10.087Z,6.67
2019-03-26T15:28:38.515Z,10.10
2019-03-26T15:31:07.017Z,9.63
2019-03-26T15:33:35.469Z,8.10
2019-03-26T15:36:04.055Z,7.77
2019-03-26T15:38:32.557Z,7.77
2019-03-26T15:41:00.989Z,7.40
2019-03-26T15:43:29.429Z,8.60
2019-03-26T15:45:57.875Z,7.10
2019-03-26T15:48:26.335Z,10.53
2019-03-26T15:50:54.810Z,7.30
2019-03-26T15:53:23.269Z,7.70
2019-03-26T15:55:51.771Z,7.37
2019-03-26T15:58:20.275Z,9.93
2019-03-26T16:00:49.714Z,13.37
2019-03-26T16:03:18.242Z,11.70
2019-03-26T16:05:46.813Z,11.20
2019-03-26T16:08:15.305Z,11.00
2019-03-26T16:10:43.721Z,14.80
2019-03-26T16:13:12.167Z,12.63
2019-03-26T16:15:44.825Z,14.83
2019-03-26T16:18:10.912Z,11.53
2019-03-26T16:20:39.354Z,13.70
2019-03-26T16:23:07.802Z,13.80
2019-03-26T16:25:36.233Z,15.30
2019-03-26T16:28:04.763Z,16.23
2019-03-26T16:30:34.607Z,18.07
2019-03-26T16:33:03.173Z,12.67
2019-03-26T16:35:31.609Z,17.50
2019-03-26T16:38:00.050Z,13.73
2019-03-26T16:40:28.557Z,13.23
2019-03-26T16:42:56.991Z,14.30
2019-03-26T16:45:25.551Z,14.00
2019-03-26T16:47:54.200Z,17.77
2019-03-26T16:50:22.653Z,15.47
2019-03-26T16:52:51.093Z,15.43
2019-03-26T16:55:19.627Z,16.90
2019-03-26T16:57:48.058Z,11.80
2019-03-26T17:00:19.664Z,13.10
2019-03-26T17:02:48.128Z,11.90
2019-03-26T17:05:19.727Z,18.67
2019-03-26T17:07:48.162Z,11.90
2019-03-26T17:10:16.753Z,12.03
2019-03-26T17:12:45.176Z,12.03
2019-03-26T17:15:13.771Z,12.27
2019-03-26T17:17:42.185Z,15.77
2019-03-26T17:20:10.802Z,12.10
2019-03-26T17:22:39.225Z,14.57
2019-03-26T17:25:07.856Z,14.57
2019-03-26T17:27:36.346Z,14.30
2019-03-26T17:30:05.860Z,14.70
2019-03-26T17:32:34.269Z,12.20
2019-03-26T17:35:02.880Z,11.90
2019-03-26T17:37:31.308Z,12.83
2019-03-26T17:39:59.717Z,10.90
2019-03-26T17:42:28.184Z,10.73
2019-03-26T17:44:58.387Z,11.67
2019-03-26T17:47:26.789Z,14.30
2019-03-26T17:49:55.191Z,9.67
2019-03-26T17:52:23.694Z,12.03
2019-03-26T17:54:52.221Z,9.50
2019-03-26T17:57:20.746Z,10.33
2019-03-26T17:59:49.179Z,10.17
2019-03-26T18:02:17.790Z,9.10
2019-03-26T18:04:46.277Z,13.87
2019-03-26T18:07:14.719Z,13.93
2019-03-26T18:09:43.153Z,10.80
2019-03-26T18:12:11.576Z,14.50
2019-03-26T18:14:40.026Z,11.03
2019-03-26T18:17:08.492Z,10.87
2019-03-26T18:19:36.923Z,15.00
2019-03-26T18:22:05.746Z,10.50
2019-03-26T18:24:34.325Z,13.33
2019-03-26T18:27:02.865Z,9.50
2019-03-26T18:29:31.291Z,11.80
2019-03-26T18:31:59.795Z,10.13
2019-03-26T18:34:28.238Z,10.77
2019-03-26T18:36:56.843Z,9.83
2019-03-26T18:39:25.280Z,10.73
2019-03-26T18:41:53.774Z,11.97
2019-03-26T18:44:22.306Z,9.87
2019-03-26T18:46:50.761Z,11.03
2019-03-26T18:49:19.325Z,10.00
2019-03-26T18:51:47.893Z,10.30
2019-03-26T18:54:16.389Z,10.53
2019-03-26T18:56:44.856Z,10.47
2019-03-26T18:59:13.398Z,14.20
2019-03-26T19:01:41.928Z,12.07
2019-03-26T19:04:10.391Z,9.60
2019-03-26T19:06:38.962Z,12.60
2019-03-26T19:09:07.643Z,10.63
2019-03-26T19:11:36.085Z,15.03
2019-03-26T19:14:04.662Z,11.33
2019-03-26T19:16:33.254Z,9.83
2019-03-26T19:19:01.707Z,12.03
2019-03-26T19:21:30.118Z,10.90
2019-03-26T19:24:03.854Z,12.17
2019-03-26T19:26:28.806Z,12.00
2019-03-26T19:28:57.300Z,13.20
2019-03-26T19:31:25.826Z,15.17
2019-03-26T19:33:54.385Z,9.83
2019-03-26T19:36:23.266Z,13.13
2019-03-26T19:38:51.759Z,10.90
2019-03-26T19:41:20.299Z,13.00
2019-03-26T19:43:48.808Z,18.10
2019-03-26T19:46:17.626Z,15.40
2019-03-26T19:48:46.157Z,16.03
2019-03-26T19:51:14.740Z,15.90
2019-03-26T19:53:43.164Z,15.53
2019-03-26T19:56:11.806Z,12.77
2019-03-26T19:58:40.326Z,15.20
2019-03-26T20:01:08.882Z,14.10
2019-03-26T20:03:37.395Z,15.10
2019-03-26T20:06:13.316Z,15.10
2019-03-26T20:08:36.226Z,13.33
2019-03-26T20:11:04.839Z,13.10
2019-03-26T20:13:33.454Z,13.70
2019-03-26T20:16:02.429Z,21.27
2019-03-26T20:18:34.394Z,14.23
2019-03-26T20:21:03.378Z,17.40
2019-03-26T20:23:32.228Z,16.63
2019-03-26T20:26:01.088Z,11.33
2019-03-26T20:28:30.034Z,12.97
2019-03-26T20:30:58.595Z,13.20
2019-03-26T20:33:27.124Z,15.07
2019-03-26T20:35:55.550Z,17.37
2019-03-26T20:38:24.068Z,12.80
2019-03-26T20:40:52.585Z,12.93
2019-03-26T20:43:21.139Z,11.03
2019-03-26T20:45:49.618Z,15.27
2019-03-26T20:48:18.087Z,14.13
2019-03-26T20:50:46.498Z,13.10
2019-03-26T20:53:14.996Z,12.43
2019-03-26T20:55:53.657Z,15.87
2019-03-26T20:58:13.614Z,12.63
2019-03-26T21:00:42.479Z,13.10
2019-03-26T21:03:11.101Z,13.90
2019-03-26T21:05:39.682Z,12.70
2019-03-26T21:08:08.306Z,15.70
2019-03-26T21:10:36.841Z,16.17
2019-03-26T21:13:07.220Z,15.73
2019-03-26T21:15:35.673Z,12.80
2019-03-26T21:18:04.383Z,13.00
2019-03-26T21:20:32.895Z,12.40
2019-03-26T21:23:01.337Z,12.03
2019-03-26T21:25:29.849Z,16.50
2019-03-26T21:27:58.374Z,15.13
2019-03-26T21:30:26.972Z,12.70
2019-03-26T21:32:55.572Z,12.90
2019-03-26T21:35:24.225Z,14.03
2019-03-26T21:37:52.663Z,11.77
2019-03-26T21:40:21.200Z,15.53
2019-03-26T21:42:49.643Z,13.53
2019-03-26T21:45:21.182Z,17.00
2019-03-26T21:47:49.686Z,16.70
2019-03-26T21:50:18.292Z,14.30
2019-03-26T21:52:46.738Z,16.00
2019-03-26T21:55:15.330Z,16.57
2019-03-26T21:57:43.746Z,15.83
2019-03-26T22:00:12.846Z,18.33
2019-03-26T22:02:41.274Z,13.37
2019-03-26T22:05:10.173Z,14.90
2019-03-26T22:07:38.586Z,16.77
2019-03-26T22:10:07.671Z,16.47
2019-03-26T22:12:36.224Z,17.50
2019-03-26T22:15:09.453Z,13.47
2019-03-26T22:17:37.865Z,15.03
2019-03-26T22:20:07.024Z,15.13
2019-03-26T22:22:35.614Z,16.40
2019-03-26T22:25:06.723Z,14.40
2019-03-26T22:27:35.274Z,17.03
2019-03-26T22:30:05.617Z,14.07
2019-03-26T22:32:34.062Z,18.27
2019-03-26T22:35:02.557Z,15.43
2019-03-26T22:37:31.018Z,13.47
2019-03-26T22:39:59.474Z,13.90
2019-03-26T22:42:27.976Z,14.63
2019-03-26T22:44:56.479Z,13.30
2019-03-26T22:47:25.086Z,14.50
2019-03-26T22:49:53.527Z,12.73
2019-03-26T22:52:21.962Z,20.20
2019-03-26T22:54:50.397Z,14.20
2019-03-26T22:57:18.841Z,16.57
2019-03-26T22:59:47.285Z,14.20
2019-03-26T23:02:15.749Z,16.90
2019-03-26T23:04:44.169Z,15.77
2019-03-26T23:07:12.753Z,17.43
2019-03-26T23:09:41.267Z,15.70
2019-03-26T23:12:09.696Z,19.00
2019-03-26T23:14:44.894Z,17.00
2019-03-26T23:17:08.299Z,16.47
2019-03-26T23:19:36.705Z,18.17
2019-03-26T23:22:05.256Z,16.53
2019-03-26T23:24:33.748Z,15.73
2019-03-26T23:27:02.173Z,17.70
2019-03-26T23:29:30.630Z,17.27
2019-03-26T23:31:59.040Z,17.60
2019-03-26T23:34:27.497Z,13.90
2019-03-26T23:36:56.003Z,18.20
2019-03-26T23:39:24.469Z,22.13
2019-03-26T23:41:52.883Z,16.97
2019-03-26T23:44:26.120Z,15.13
2019-03-26T23:46:51.470Z,16.03
2019-03-26T23:49:19.889Z,17.80
2019-03-26T23:51:48.300Z,17.10
2019-03-26T23:54:16.746Z,17.07
2019-03-26T23:56:45.160Z,13.23
2019-03-26T23:59:13.621Z,11.43
